sensor_id;sensor_type;location;lat;lon;timestamp;P1;P2;P0
61760;PMS5003;47664;51.660;-0.100;2022-11-14T00:02:00;50;46;
61760;PMS5003;47664;51.660;-0.100;2022-11-14T00:04:32;54;49;
61760;PMS5003;47664;51.660;-0.100;2022-11-14T00:07:04;51;48;
61760;PMS5003;47664;51.660;-0.100;2022-11-14T00:09:36;48;43;
61760;PMS5003;47664;51.660;-0.100;2022-11-14T00:12:09;49;41;
61760;PMS5003;47664;51.660;-0.100;2022-11-14T00:14:41;56;52;
61760;PMS5003;47664;51.660;-0.100;2022-11-14T00:17:13;54;48;
61760;PMS5003;47664;51.660;-0.100;2022-11-14T00:19:46;48;43;
61760;PMS5003;47664;51.660;-0.100;2022-11-14T00:22:17;48;44;
61760;PMS5003;47664;51.660;-0.100;2022-11-14T00:24:50;50;43;
61760;PMS5003;47664;51.660;-0.100;2022-11-14T00:27:22;53;44;
61760;PMS5003;47664;51.660;-0.100;2022-11-14T00:29:54;51;43;
61760;PMS5003;47664;51.660;-0.100;2022-11-14T00:32:26;49;45;
61760;PMS5003;47664;51.660;-0.100;2022-11-14T00:34:58;53;46;
61760;PMS5003;47664;51.660;-0.100;2022-11-14T00:37:31;54;48;
61760;PMS5003;47664;51.660;-0.100;2022-11-14T00:40:03;42;40;
61760;PMS5003;47664;51.660;-0.100;2022-11-14T00:42:35;58;49;
61760;PMS5003;47664;51.660;-0.100;2022-11-14T00:45:08;51;41;
61760;PMS5003;47664;51.660;-0.100;2022-11-14T00:47:40;58;48;
61760;PMS5003;47664;51.660;-0.100;2022-11-14T00:50:18;52;45;
61760;PMS5003;47664;51.660;-0.100;2022-11-14T00:52:46;56;47;
61760;PMS5003;47664;51.660;-0.100;2022-11-14T00:55:18;60;48;
61760;PMS5003;47664;51.660;-0.100;2022-11-14T00:57:50;55;53;
61760;PMS5003;47664;51.660;-0.100;2022-11-14T01:00:23;63;51;
61760;PMS5003;47664;51.660;-0.100;2022-11-14T01:02:55;58;54;
61760;PMS5003;47664;51.660;-0.100;2022-11-14T01:05:27;62;50;
61760;PMS5003;47664;51.660;-0.100;2022-11-14T01:07:59;62;50;
61760;PMS5003;47664;51.660;-0.100;2022-11-14T01:10:31;54;47;
61760;PMS5003;47664;51.660;-0.100;2022-11-14T01:13:04;68;55;
61760;PMS5003;47664;51.660;-0.100;2022-11-14T01:15:38;65;57;
61760;PMS5003;47664;51.660;-0.100;2022-11-14T01:18:14;60;51;
61760;PMS5003;47664;51.660;-0.100;2022-11-14T01:20:43;63;51;
61760;PMS5003;47664;51.660;-0.100;2022-11-14T01:23:15;60;54;
61760;PMS5003;47664;51.660;-0.100;2022-11-14T01:25:47;68;63;
61760;PMS5003;47664;51.660;-0.100;2022-11-14T01:28:20;56;54;
61760;PMS5003;47664;51.660;-0.100;2022-11-14T01:30:52;75;65;
61760;PMS5003;47664;51.660;-0.100;2022-11-14T01:33:32;68;59;
61760;PMS5003;47664;51.660;-0.100;2022-11-14T01:36:04;60;53;
61760;PMS5003;47664;51.660;-0.100;2022-11-14T01:38:37;59;54;
61760;PMS5003;47664;51.660;-0.100;2022-11-14T01:41:10;43;39;
61760;PMS5003;47664;51.660;-0.100;2022-11-14T01:43:43;46;38;
61760;PMS5003;47664;51.660;-0.100;2022-11-14T01:46:18;47;40;
61760;PMS5003;47664;51.660;-0.100;2022-11-14T01:48:54;41;35;
61760;PMS5003;47664;51.660;-0.100;2022-11-14T01:51:30;40;37;
61760;PMS5003;47664;51.660;-0.100;2022-11-14T01:54:06;52;40;
61760;PMS5003;47664;51.660;-0.100;2022-11-14T01:56:46;41;35;
61760;PMS5003;47664;51.660;-0.100;2022-11-14T01:59:21;44;42;
61760;PMS5003;47664;51.660;-0.100;2022-11-14T02:01:59;47;41;
61760;PMS5003;47664;51.660;-0.100;2022-11-14T02:04:39;47;42;
61760;PMS5003;47664;51.660;-0.100;2022-11-14T02:07:09;44;42;
61760;PMS5003;47664;51.660;-0.100;2022-11-14T02:09:44;58;46;
61760;PMS5003;47664;51.660;-0.100;2022-11-14T02:12:17;49;42;
61760;PMS5003;47664;51.660;-0.100;2022-11-14T02:14:50;52;42;
61760;PMS5003;47664;51.660;-0.100;2022-11-14T02:17:24;53;49;
61760;PMS5003;47664;51.660;-0.100;2022-11-14T02:20:03;56;47;
61760;PMS5003;47664;51.660;-0.100;2022-11-14T02:22:32;54;51;
61760;PMS5003;47664;51.660;-0.100;2022-11-14T02:25:06;47;43;
61760;PMS5003;47664;51.660;-0.100;2022-11-14T02:27:41;49;44;
61760;PMS5003;47664;51.660;-0.100;2022-11-14T02:30:15;51;48;
61760;PMS5003;47664;51.660;-0.100;2022-11-14T02:32:48;50;45;
61760;PMS5003;47664;51.660;-0.100;2022-11-14T02:35:20;55;44;
61760;PMS5003;47664;51.660;-0.100;2022-11-14T02:37:52;53;42;
61760;PMS5003;47664;51.660;-0.100;2022-11-14T02:40:24;49;42;
61760;PMS5003;47664;51.660;-0.100;2022-11-14T02:42:56;50;43;
61760;PMS5003;47664;51.660;-0.100;2022-11-14T02:45:29;48;42;
61760;PMS5003;47664;51.660;-0.100;2022-11-14T02:48:01;49;46;
61760;PMS5003;47664;51.660;-0.100;2022-11-14T02:50:33;48;41;
61760;PMS5003;47664;51.660;-0.100;2022-11-14T02:53:05;42;39;
61760;PMS5003;47664;51.660;-0.100;2022-11-14T02:55:38;45;40;
61760;PMS5003;47664;51.660;-0.100;2022-11-14T02:58:10;46;43;
61760;PMS5003;47664;51.660;-0.100;2022-11-14T03:00:42;46;43;
61760;PMS5003;47664;51.660;-0.100;2022-11-14T03:03:14;55;46;
61760;PMS5003;47664;51.660;-0.100;2022-11-14T03:05:46;55;50;
61760;PMS5003;47664;51.660;-0.100;2022-11-14T03:08:18;53;41;
61760;PMS5003;47664;51.660;-0.100;2022-11-14T03:10:50;46;42;
61760;PMS5003;47664;51.660;-0.100;2022-11-14T03:13:28;43;40;
61760;PMS5003;47664;51.660;-0.100;2022-11-14T03:16:04;46;39;
61760;PMS5003;47664;51.660;-0.100;2022-11-14T03:18:31;54;44;
61760;PMS5003;47664;51.660;-0.100;2022-11-14T03:21:04;48;42;
61760;PMS5003;47664;51.660;-0.100;2022-11-14T03:23:37;46;41;
61760;PMS5003;47664;51.660;-0.100;2022-11-14T03:26:10;46;39;
61760;PMS5003;47664;51.660;-0.100;2022-11-14T03:28:42;45;40;
61760;PMS5003;47664;51.660;-0.100;2022-11-14T03:31:15;43;38;
61760;PMS5003;47664;51.660;-0.100;2022-11-14T03:33:47;40;36;
61760;PMS5003;47664;51.660;-0.100;2022-11-14T03:36:19;40;39;
61760;PMS5003;47664;51.660;-0.100;2022-11-14T03:38:51;48;41;
61760;PMS5003;47664;51.660;-0.100;2022-11-14T03:41:23;49;43;
61760;PMS5003;47664;51.660;-0.100;2022-11-14T03:43:55;46;40;
61760;PMS5003;47664;51.660;-0.100;2022-11-14T03:46:27;45;37;
61760;PMS5003;47664;51.660;-0.100;2022-11-14T03:48:58;52;47;
61760;PMS5003;47664;51.660;-0.100;2022-11-14T03:51:31;47;45;
61760;PMS5003;47664;51.660;-0.100;2022-11-14T03:54:03;63;51;
61760;PMS5003;47664;51.660;-0.100;2022-11-14T03:56:36;59;51;
61760;PMS5003;47664;51.660;-0.100;2022-11-14T03:59:08;59;51;
61760;PMS5003;47664;51.660;-0.100;2022-11-14T04:01:40;56;50;
61760;PMS5003;47664;51.660;-0.100;2022-11-14T04:04:13;58;48;
61760;PMS5003;47664;51.660;-0.100;2022-11-14T04:06:45;53;49;
61760;PMS5003;47664;51.660;-0.100;2022-11-14T04:09:17;50;46;
61760;PMS5003;47664;51.660;-0.100;2022-11-14T04:11:49;58;52;
61760;PMS5003;47664;51.660;-0.100;2022-11-14T04:14:21;55;45;
61760;PMS5003;47664;51.660;-0.100;2022-11-14T04:16:53;57;51;
61760;PMS5003;47664;51.660;-0.100;2022-11-14T04:19:26;63;53;
61760;PMS5003;47664;51.660;-0.100;2022-11-14T04:21:58;61;55;
61760;PMS5003;47664;51.660;-0.100;2022-11-14T04:24:31;54;48;
61760;PMS5003;47664;51.660;-0.100;2022-11-14T04:27:02;55;45;
61760;PMS5003;47664;51.660;-0.100;2022-11-14T04:29:34;63;54;
61760;PMS5003;47664;51.660;-0.100;2022-11-14T04:32:07;66;55;
61760;PMS5003;47664;51.660;-0.100;2022-11-14T04:34:39;54;45;
61760;PMS5003;47664;51.660;-0.100;2022-11-14T04:37:11;61;48;
61760;PMS5003;47664;51.660;-0.100;2022-11-14T04:39:44;57;47;
61760;PMS5003;47664;51.660;-0.100;2022-11-14T04:42:16;66;55;
61760;PMS5003;47664;51.660;-0.100;2022-11-14T04:44:48;63;50;
61760;PMS5003;47664;51.660;-0.100;2022-11-14T04:47:20;58;52;
61760;PMS5003;47664;51.660;-0.100;2022-11-14T04:49:52;59;49;
61760;PMS5003;47664;51.660;-0.100;2022-11-14T04:52:24;53;50;
61760;PMS5003;47664;51.660;-0.100;2022-11-14T04:54:56;49;40;
61760;PMS5003;47664;51.660;-0.100;2022-11-14T04:57:28;58;47;
61760;PMS5003;47664;51.660;-0.100;2022-11-14T05:00:00;61;50;
61760;PMS5003;47664;51.660;-0.100;2022-11-14T05:02:33;56;46;
61760;PMS5003;47664;51.660;-0.100;2022-11-14T05:05:05;50;45;
61760;PMS5003;47664;51.660;-0.100;2022-11-14T05:07:37;51;40;
61760;PMS5003;47664;51.660;-0.100;2022-11-14T05:10:10;52;45;
61760;PMS5003;47664;51.660;-0.100;2022-11-14T05:12:42;52;48;
61760;PMS5003;47664;51.660;-0.100;2022-11-14T05:15:18;52;43;
61760;PMS5003;47664;51.660;-0.100;2022-11-14T05:17:50;49;42;
61760;PMS5003;47664;51.660;-0.100;2022-11-14T05:20:23;65;51;
61760;PMS5003;47664;51.660;-0.100;2022-11-14T05:22:54;53;40;
61760;PMS5003;47664;51.660;-0.100;2022-11-14T05:25:26;49;38;
61760;PMS5003;47664;51.660;-0.100;2022-11-14T05:27:58;58;39;
61760;PMS5003;47664;51.660;-0.100;2022-11-14T05:31:15;53;41;
61760;PMS5003;47664;51.660;-0.100;2022-11-14T05:33:48;39;34;
61760;PMS5003;47664;51.660;-0.100;2022-11-14T05:36:20;47;39;
61760;PMS5003;47664;51.660;-0.100;2022-11-14T05:38:52;48;36;
61760;PMS5003;47664;51.660;-0.100;2022-11-14T05:41:25;42;39;
61760;PMS5003;47664;51.660;-0.100;2022-11-14T05:43:57;43;32;
61760;PMS5003;47664;51.660;-0.100;2022-11-14T05:46:29;36;31;
61760;PMS5003;47664;51.660;-0.100;2022-11-14T05:49:01;37;30;
61760;PMS5003;47664;51.660;-0.100;2022-11-14T05:51:34;38;31;
61760;PMS5003;47664;51.660;-0.100;2022-11-14T05:54:06;32;31;
61760;PMS5003;47664;51.660;-0.100;2022-11-14T05:56:38;38;29;
61760;PMS5003;47664;51.660;-0.100;2022-11-14T05:59:11;40;33;
61760;PMS5003;47664;51.660;-0.100;2022-11-14T06:01:43;37;31;
61760;PMS5003;47664;51.660;-0.100;2022-11-14T06:04:15;43;35;
61760;PMS5003;47664;51.660;-0.100;2022-11-14T06:06:47;37;33;
61760;PMS5003;47664;51.660;-0.100;2022-11-14T06:09:19;35;35;
61760;PMS5003;47664;51.660;-0.100;2022-11-14T06:11:51;37;33;
61760;PMS5003;47664;51.660;-0.100;2022-11-14T06:14:23;39;35;
61760;PMS5003;47664;51.660;-0.100;2022-11-14T06:16:55;32;28;
61760;PMS5003;47664;51.660;-0.100;2022-11-14T06:19:28;38;29;
61760;PMS5003;47664;51.660;-0.100;2022-11-14T06:22:00;44;33;
61760;PMS5003;47664;51.660;-0.100;2022-11-14T06:24:32;36;32;
61760;PMS5003;47664;51.660;-0.100;2022-11-14T06:27:05;32;28;
61760;PMS5003;47664;51.660;-0.100;2022-11-14T06:29:37;43;33;
61760;PMS5003;47664;51.660;-0.100;2022-11-14T06:32:09;30;27;
61760;PMS5003;47664;51.660;-0.100;2022-11-14T06:34:41;35;28;
61760;PMS5003;47664;51.660;-0.100;2022-11-14T06:37:14;38;32;
61760;PMS5003;47664;51.660;-0.100;2022-11-14T06:39:46;33;28;
61760;PMS5003;47664;51.660;-0.100;2022-11-14T06:42:18;32;28;
61760;PMS5003;47664;51.660;-0.100;2022-11-14T06:44:50;38;34;
61760;PMS5003;47664;51.660;-0.100;2022-11-14T06:47:22;33;29;
61760;PMS5003;47664;51.660;-0.100;2022-11-14T06:49:54;36;32;
61760;PMS5003;47664;51.660;-0.100;2022-11-14T06:52:27;36;31;
61760;PMS5003;47664;51.660;-0.100;2022-11-14T06:54:59;29;26;
61760;PMS5003;47664;51.660;-0.100;2022-11-14T06:57:32;34;28;
61760;PMS5003;47664;51.660;-0.100;2022-11-14T07:00:04;40;29;
61760;PMS5003;47664;51.660;-0.100;2022-11-14T07:02:37;36;32;
61760;PMS5003;47664;51.660;-0.100;2022-11-14T07:05:10;37;31;
61760;PMS5003;47664;51.660;-0.100;2022-11-14T07:07:43;30;25;
61760;PMS5003;47664;51.660;-0.100;2022-11-14T07:10:15;36;29;
61760;PMS5003;47664;51.660;-0.100;2022-11-14T07:12:47;32;29;
61760;PMS5003;47664;51.660;-0.100;2022-11-14T07:15:19;38;32;
61760;PMS5003;47664;51.660;-0.100;2022-11-14T07:17:51;27;23;
61760;PMS5003;47664;51.660;-0.100;2022-11-14T07:20:23;35;27;
61760;PMS5003;47664;51.660;-0.100;2022-11-14T07:22:55;30;27;
61760;PMS5003;47664;51.660;-0.100;2022-11-14T07:25:28;25;22;
61760;PMS5003;47664;51.660;-0.100;2022-11-14T07:28:00;30;26;
61760;PMS5003;47664;51.660;-0.100;2022-11-14T07:30:32;36;32;
61760;PMS5003;47664;51.660;-0.100;2022-11-14T07:33:04;31;24;
61760;PMS5003;47664;51.660;-0.100;2022-11-14T07:35:38;35;28;
61760;PMS5003;47664;51.660;-0.100;2022-11-14T07:38:10;34;25;
61760;PMS5003;47664;51.660;-0.100;2022-11-14T07:40:42;33;26;
61760;PMS5003;47664;51.660;-0.100;2022-11-14T07:43:22;32;26;
61760;PMS5003;47664;51.660;-0.100;2022-11-14T07:45:57;27;25;
61760;PMS5003;47664;51.660;-0.100;2022-11-14T07:48:25;33;25;
61760;PMS5003;47664;51.660;-0.100;2022-11-14T07:50:59;25;23;
61760;PMS5003;47664;51.660;-0.100;2022-11-14T07:53:32;27;22;
61760;PMS5003;47664;51.660;-0.100;2022-11-14T07:56:05;28;21;
61760;PMS5003;47664;51.660;-0.100;2022-11-14T07:58:39;38;29;
61760;PMS5003;47664;51.660;-0.100;2022-11-14T08:01:12;31;23;
61760;PMS5003;47664;51.660;-0.100;2022-11-14T08:03:44;29;25;
61760;PMS5003;47664;51.660;-0.100;2022-11-14T08:06:16;26;22;
61760;PMS5003;47664;51.660;-0.100;2022-11-14T08:08:48;32;27;
61760;PMS5003;47664;51.660;-0.100;2022-11-14T08:11:21;31;26;
61760;PMS5003;47664;51.660;-0.100;2022-11-14T08:13:53;26;24;
61760;PMS5003;47664;51.660;-0.100;2022-11-14T08:16:25;36;23;
61760;PMS5003;47664;51.660;-0.100;2022-11-14T08:18:58;30;27;
61760;PMS5003;47664;51.660;-0.100;2022-11-14T08:21:30;38;30;
61760;PMS5003;47664;51.660;-0.100;2022-11-14T08:24:02;25;24;
61760;PMS5003;47664;51.660;-0.100;2022-11-14T08:26:34;31;26;
61760;PMS5003;47664;51.660;-0.100;2022-11-14T08:29:06;25;23;
61760;PMS5003;47664;51.660;-0.100;2022-11-14T08:31:39;29;23;
61760;PMS5003;47664;51.660;-0.100;2022-11-14T08:34:11;25;22;
61760;PMS5003;47664;51.660;-0.100;2022-11-14T08:36:44;35;30;
61760;PMS5003;47664;51.660;-0.100;2022-11-14T08:39:16;30;25;
61760;PMS5003;47664;51.660;-0.100;2022-11-14T08:41:48;26;23;
61760;PMS5003;47664;51.660;-0.100;2022-11-14T08:44:21;25;22;
61760;PMS5003;47664;51.660;-0.100;2022-11-14T08:46:52;28;25;
61760;PMS5003;47664;51.660;-0.100;2022-11-14T08:49:25;29;26;
61760;PMS5003;47664;51.660;-0.100;2022-11-14T08:51:57;26;20;
61760;PMS5003;47664;51.660;-0.100;2022-11-14T08:54:28;26;23;
61760;PMS5003;47664;51.660;-0.100;2022-11-14T08:57:01;34;26;
61760;PMS5003;47664;51.660;-0.100;2022-11-14T08:59:33;35;24;
61760;PMS5003;47664;51.660;-0.100;2022-11-14T09:02:06;30;22;
61760;PMS5003;47664;51.660;-0.100;2022-11-14T09:04:38;30;24;
61760;PMS5003;47664;51.660;-0.100;2022-11-14T09:07:10;30;28;
61760;PMS5003;47664;51.660;-0.100;2022-11-14T09:09:43;26;23;
61760;PMS5003;47664;51.660;-0.100;2022-11-14T09:12:15;41;30;
61760;PMS5003;47664;51.660;-0.100;2022-11-14T09:14:48;26;21;
61760;PMS5003;47664;51.660;-0.100;2022-11-14T09:17:19;38;26;
61760;PMS5003;47664;51.660;-0.100;2022-11-14T09:19:52;31;24;
61760;PMS5003;47664;51.660;-0.100;2022-11-14T09:22:24;28;26;
61760;PMS5003;47664;51.660;-0.100;2022-11-14T09:24:57;31;26;
61760;PMS5003;47664;51.660;-0.100;2022-11-14T09:27:29;30;27;
61760;PMS5003;47664;51.660;-0.100;2022-11-14T09:30:01;25;24;
61760;PMS5003;47664;51.660;-0.100;2022-11-14T09:32:33;30;27;
61760;PMS5003;47664;51.660;-0.100;2022-11-14T09:35:06;28;24;
61760;PMS5003;47664;51.660;-0.100;2022-11-14T09:37:38;31;24;
61760;PMS5003;47664;51.660;-0.100;2022-11-14T09:40:11;34;26;
61760;PMS5003;47664;51.660;-0.100;2022-11-14T09:42:50;33;25;
61760;PMS5003;47664;51.660;-0.100;2022-11-14T09:45:27;30;26;
61760;PMS5003;47664;51.660;-0.100;2022-11-14T09:48:03;38;30;
61760;PMS5003;47664;51.660;-0.100;2022-11-14T09:50:34;25;23;
61760;PMS5003;47664;51.660;-0.100;2022-11-14T09:53:08;31;30;
61760;PMS5003;47664;51.660;-0.100;2022-11-14T09:55:40;28;26;
61760;PMS5003;47664;51.660;-0.100;2022-11-14T09:58:14;26;23;
61760;PMS5003;47664;51.660;-0.100;2022-11-14T10:00:46;28;22;
61760;PMS5003;47664;51.660;-0.100;2022-11-14T10:03:20;32;26;
61760;PMS5003;47664;51.660;-0.100;2022-11-14T10:06:05;28;25;
61760;PMS5003;47664;51.660;-0.100;2022-11-14T10:08:45;32;25;
61760;PMS5003;47664;51.660;-0.100;2022-11-14T10:11:20;35;29;
61760;PMS5003;47664;51.660;-0.100;2022-11-14T10:13:55;32;28;
61760;PMS5003;47664;51.660;-0.100;2022-11-14T10:16:43;31;31;
61760;PMS5003;47664;51.660;-0.100;2022-11-14T10:19:19;31;27;
61760;PMS5003;47664;51.660;-0.100;2022-11-14T10:21:57;38;27;
61760;PMS5003;47664;51.660;-0.100;2022-11-14T10:24:44;33;27;
61760;PMS5003;47664;51.660;-0.100;2022-11-14T10:27:21;37;31;
61760;PMS5003;47664;51.660;-0.100;2022-11-14T10:29:59;41;30;
61760;PMS5003;47664;51.660;-0.100;2022-11-14T10:32:38;38;34;
61760;PMS5003;47664;51.660;-0.100;2022-11-14T10:35:17;34;29;
61760;PMS5003;47664;51.660;-0.100;2022-11-14T10:37:56;39;33;
61760;PMS5003;47664;51.660;-0.100;2022-11-14T10:40:30;30;25;
61760;PMS5003;47664;51.660;-0.100;2022-11-14T10:43:06;34;31;
61760;PMS5003;47664;51.660;-0.100;2022-11-14T10:45:47;31;27;
61760;PMS5003;47664;51.660;-0.100;2022-11-14T10:48:23;43;32;
61760;PMS5003;47664;51.660;-0.100;2022-11-14T10:50:56;28;27;
61760;PMS5003;47664;51.660;-0.100;2022-11-14T10:53:36;31;25;
61760;PMS5003;47664;51.660;-0.100;2022-11-14T10:56:12;34;30;
61760;PMS5003;47664;51.660;-0.100;2022-11-14T10:58:44;34;30;
61760;PMS5003;47664;51.660;-0.100;2022-11-14T11:01:32;34;27;
61760;PMS5003;47664;51.660;-0.100;2022-11-14T11:04:16;29;23;
61760;PMS5003;47664;51.660;-0.100;2022-11-14T11:06:47;25;23;
61760;PMS5003;47664;51.660;-0.100;2022-11-14T11:09:21;25;24;
61760;PMS5003;47664;51.660;-0.100;2022-11-14T11:11:55;32;28;
61760;PMS5003;47664;51.660;-0.100;2022-11-14T11:14:28;31;26;
61760;PMS5003;47664;51.660;-0.100;2022-11-14T11:17:14;31;25;
61760;PMS5003;47664;51.660;-0.100;2022-11-14T11:19:44;31;24;
61760;PMS5003;47664;51.660;-0.100;2022-11-14T11:22:25;26;23;
61760;PMS5003;47664;51.660;-0.100;2022-11-14T11:25:02;31;27;
61760;PMS5003;47664;51.660;-0.100;2022-11-14T11:28:02;26;24;
61760;PMS5003;47664;51.660;-0.100;2022-11-14T11:30:31;34;30;
61760;PMS5003;47664;51.660;-0.100;2022-11-14T11:33:21;26;24;
61760;PMS5003;47664;51.660;-0.100;2022-11-14T11:35:51;26;22;
61760;PMS5003;47664;51.660;-0.100;2022-11-14T11:38:27;30;24;
61760;PMS5003;47664;51.660;-0.100;2022-11-14T11:41:04;27;25;
61760;PMS5003;47664;51.660;-0.100;2022-11-14T11:43:46;27;20;
61760;PMS5003;47664;51.660;-0.100;2022-11-14T11:46:25;31;25;
61760;PMS5003;47664;51.660;-0.100;2022-11-14T11:48:59;28;23;
61760;PMS5003;47664;51.660;-0.100;2022-11-14T11:51:45;27;22;
61760;PMS5003;47664;51.660;-0.100;2022-11-14T11:54:21;27;21;
61760;PMS5003;47664;51.660;-0.100;2022-11-14T11:56:58;27;20;
61760;PMS5003;47664;51.660;-0.100;2022-11-14T11:59:39;25;22;
61760;PMS5003;47664;51.660;-0.100;2022-11-14T12:02:16;25;20;
61760;PMS5003;47664;51.660;-0.100;2022-11-14T12:04:48;29;20;
61760;PMS5003;47664;51.660;-0.100;2022-11-14T12:07:24;26;23;
61760;PMS5003;47664;51.660;-0.100;2022-11-14T12:10:04;21;20;
61760;PMS5003;47664;51.660;-0.100;2022-11-14T12:12:47;25;23;
61760;PMS5003;47664;51.660;-0.100;2022-11-14T12:15:30;30;22;
61760;PMS5003;47664;51.660;-0.100;2022-11-14T12:18:30;27;21;
61760;PMS5003;47664;51.660;-0.100;2022-11-14T12:21:11;32;23;
61760;PMS5003;47664;51.660;-0.100;2022-11-14T12:24:04;30;23;
61760;PMS5003;47664;51.660;-0.100;2022-11-14T12:27:01;26;23;
61760;PMS5003;47664;51.660;-0.100;2022-11-14T12:29:46;31;22;
61760;PMS5003;47664;51.660;-0.100;2022-11-14T12:32:28;30;27;
61760;PMS5003;47664;51.660;-0.100;2022-11-14T12:34:59;30;28;
61760;PMS5003;47664;51.660;-0.100;2022-11-14T12:37:33;33;29;
61760;PMS5003;47664;51.660;-0.100;2022-11-14T12:40:17;42;29;
61760;PMS5003;47664;51.660;-0.100;2022-11-14T12:40:22;42;29;
61760;PMS5003;47664;51.660;-0.100;2022-11-14T12:42:53;43;30;
61760;PMS5003;47664;51.660;-0.100;2022-11-14T12:46:00;42;37;
61760;PMS5003;47664;51.660;-0.100;2022-11-14T12:48:28;42;38;
61760;PMS5003;47664;51.660;-0.100;2022-11-14T12:51:03;48;43;
61760;PMS5003;47664;51.660;-0.100;2022-11-14T12:55:30;56;48;
61760;PMS5003;47664;51.660;-0.100;2022-11-14T12:58:22;57;49;
61760;PMS5003;47664;51.660;-0.100;2022-11-14T13:01:09;61;53;
61760;PMS5003;47664;51.660;-0.100;2022-11-14T13:03:55;67;54;
61760;PMS5003;47664;51.660;-0.100;2022-11-14T13:06:38;50;42;
61760;PMS5003;47664;51.660;-0.100;2022-11-14T13:09:38;57;43;
61760;PMS5003;47664;51.660;-0.100;2022-11-14T13:12:25;48;43;
61760;PMS5003;47664;51.660;-0.100;2022-11-14T13:14:55;55;47;
61760;PMS5003;47664;51.660;-0.100;2022-11-14T13:17:44;50;41;
61760;PMS5003;47664;51.660;-0.100;2022-11-14T13:20:29;51;46;
61760;PMS5003;47664;51.660;-0.100;2022-11-14T13:23:01;56;47;
61760;PMS5003;47664;51.660;-0.100;2022-11-14T13:26:52;55;48;
61760;PMS5003;47664;51.660;-0.100;2022-11-14T13:29:52;48;43;
61760;PMS5003;47664;51.660;-0.100;2022-11-14T13:32:52;50;41;
61760;PMS5003;47664;51.660;-0.100;2022-11-14T13:35:23;53;44;
61760;PMS5003;47664;51.660;-0.100;2022-11-14T13:38:07;50;40;
61760;PMS5003;47664;51.660;-0.100;2022-11-14T13:40:50;56;48;
61760;PMS5003;47664;51.660;-0.100;2022-11-14T13:43:29;63;54;
61760;PMS5003;47664;51.660;-0.100;2022-11-14T13:46:09;58;48;
61760;PMS5003;47664;51.660;-0.100;2022-11-14T13:48:55;70;54;
61760;PMS5003;47664;51.660;-0.100;2022-11-14T13:51:33;60;50;
61760;PMS5003;47664;51.660;-0.100;2022-11-14T13:54:10;61;49;
61760;PMS5003;47664;51.660;-0.100;2022-11-14T13:56:41;63;52;
61760;PMS5003;47664;51.660;-0.100;2022-11-14T13:59:25;55;41;
61760;PMS5003;47664;51.660;-0.100;2022-11-14T14:02:34;59;47;
61760;PMS5003;47664;51.660;-0.100;2022-11-14T14:06:07;52;48;
61760;PMS5003;47664;51.660;-0.100;2022-11-14T14:08:49;51;45;
61760;PMS5003;47664;51.660;-0.100;2022-11-14T14:11:32;58;48;
61760;PMS5003;47664;51.660;-0.100;2022-11-14T14:14:15;47;41;
61760;PMS5003;47664;51.660;-0.100;2022-11-14T14:16:54;43;37;
61760;PMS5003;47664;51.660;-0.100;2022-11-14T14:19:35;52;46;
61760;PMS5003;47664;51.660;-0.100;2022-11-14T14:22:17;49;42;
61760;PMS5003;47664;51.660;-0.100;2022-11-14T14:24:52;38;35;
61760;PMS5003;47664;51.660;-0.100;2022-11-14T14:27:30;51;43;
61760;PMS5003;47664;51.660;-0.100;2022-11-14T14:30:06;37;31;
61760;PMS5003;47664;51.660;-0.100;2022-11-14T14:32:36;41;36;
61760;PMS5003;47664;51.660;-0.100;2022-11-14T14:35:28;46;41;
61760;PMS5003;47664;51.660;-0.100;2022-11-14T14:38:02;53;40;
61760;PMS5003;47664;51.660;-0.100;2022-11-14T14:40:37;46;41;
61760;PMS5003;47664;51.660;-0.100;2022-11-14T14:43:12;45;42;
61760;PMS5003;47664;51.660;-0.100;2022-11-14T14:45:51;56;43;
61760;PMS5003;47664;51.660;-0.100;2022-11-14T14:48:24;49;42;
61760;PMS5003;47664;51.660;-0.100;2022-11-14T14:51:00;44;38;
61760;PMS5003;47664;51.660;-0.100;2022-11-14T14:53:38;45;37;
61760;PMS5003;47664;51.660;-0.100;2022-11-14T14:56:17;40;34;
61760;PMS5003;47664;51.660;-0.100;2022-11-14T14:58:50;43;41;
61760;PMS5003;47664;51.660;-0.100;2022-11-14T15:01:23;47;42;
61760;PMS5003;47664;51.660;-0.100;2022-11-14T15:03:59;45;38;
61760;PMS5003;47664;51.660;-0.100;2022-11-14T15:06:31;51;42;
61760;PMS5003;47664;51.660;-0.100;2022-11-14T15:09:07;46;43;
61760;PMS5003;47664;51.660;-0.100;2022-11-14T15:11:44;50;45;
61760;PMS5003;47664;51.660;-0.100;2022-11-14T15:14:16;52;47;
61760;PMS5003;47664;51.660;-0.100;2022-11-14T15:16:46;43;38;
61760;PMS5003;47664;51.660;-0.100;2022-11-14T15:19:23;50;41;
61760;PMS5003;47664;51.660;-0.100;2022-11-14T15:22:02;53;41;
61760;PMS5003;47664;51.660;-0.100;2022-11-14T15:24:31;46;41;
61760;PMS5003;47664;51.660;-0.100;2022-11-14T15:27:03;43;40;
61760;PMS5003;47664;51.660;-0.100;2022-11-14T15:29:43;45;37;
61760;PMS5003;47664;51.660;-0.100;2022-11-14T15:32:15;47;37;
61760;PMS5003;47664;51.660;-0.100;2022-11-14T15:34:49;43;38;
61760;PMS5003;47664;51.660;-0.100;2022-11-14T15:37:34;52;40;
61760;PMS5003;47664;51.660;-0.100;2022-11-14T15:40:24;57;36;
61760;PMS5003;47664;51.660;-0.100;2022-11-14T15:42:57;52;44;
61760;PMS5003;47664;51.660;-0.100;2022-11-14T15:46:00;52;42;
61760;PMS5003;47664;51.660;-0.100;2022-11-14T15:48:51;45;36;
61760;PMS5003;47664;51.660;-0.100;2022-11-14T15:51:43;43;43;
61760;PMS5003;47664;51.660;-0.100;2022-11-14T15:54:21;53;41;
61760;PMS5003;47664;51.660;-0.100;2022-11-14T15:56:50;48;40;
61760;PMS5003;47664;51.660;-0.100;2022-11-14T15:59:23;47;41;
61760;PMS5003;47664;51.660;-0.100;2022-11-14T16:01:56;41;36;
61760;PMS5003;47664;51.660;-0.100;2022-11-14T16:04:35;54;40;
61760;PMS5003;47664;51.660;-0.100;2022-11-14T16:07:08;46;42;
61760;PMS5003;47664;51.660;-0.100;2022-11-14T16:09:42;52;43;
61760;PMS5003;47664;51.660;-0.100;2022-11-14T16:12:16;48;40;
61760;PMS5003;47664;51.660;-0.100;2022-11-14T16:14:48;54;44;
61760;PMS5003;47664;51.660;-0.100;2022-11-14T16:17:21;54;42;
61760;PMS5003;47664;51.660;-0.100;2022-11-14T16:19:52;47;41;
61760;PMS5003;47664;51.660;-0.100;2022-11-14T16:22:24;48;36;
61760;PMS5003;47664;51.660;-0.100;2022-11-14T16:24:57;53;39;
61760;PMS5003;47664;51.660;-0.100;2022-11-14T16:27:31;49;38;
61760;PMS5003;47664;51.660;-0.100;2022-11-14T16:30:03;50;45;
61760;PMS5003;47664;51.660;-0.100;2022-11-14T16:32:37;41;35;
61760;PMS5003;47664;51.660;-0.100;2022-11-14T16:35:11;46;37;
61760;PMS5003;47664;51.660;-0.100;2022-11-14T16:37:44;44;39;
61760;PMS5003;47664;51.660;-0.100;2022-11-14T16:40:18;50;40;
61760;PMS5003;47664;51.660;-0.100;2022-11-14T16:42:52;53;39;
61760;PMS5003;47664;51.660;-0.100;2022-11-14T16:45:25;50;38;
61760;PMS5003;47664;51.660;-0.100;2022-11-14T16:47:57;48;34;
61760;PMS5003;47664;51.660;-0.100;2022-11-14T16:50:30;54;44;
61760;PMS5003;47664;51.660;-0.100;2022-11-14T16:53:02;49;40;
61760;PMS5003;47664;51.660;-0.100;2022-11-14T16:55:34;44;39;